sensor_id;sensor_type;location;lat;lon;timestamp;temperature;humidity
40696;DHT22;40425;51.102;17.208;2022-08-01T00:01:51;14.40;99.90
40696;DHT22;40425;51.102;17.208;2022-08-01T00:06:52;14.40;99.90
40696;DHT22;40425;51.102;17.208;2022-08-01T00:11:53;14.30;99.90
40696;DHT22;40425;51.102;17.208;2022-08-01T00:16:53;14.20;99.90
40696;DHT22;40425;51.102;17.208;2022-08-01T00:21:54;14.20;99.90
40696;DHT22;40425;51.102;17.208;2022-08-01T00:26:55;14.10;99.90
40696;DHT22;40425;51.102;17.208;2022-08-01T00:31:57;14.00;99.90
40696;DHT22;40425;51.102;17.208;2022-08-01T00:36:57;14.00;99.90
40696;DHT22;40425;51.102;17.208;2022-08-01T00:41:59;13.90;99.90
40696;DHT22;40425;51.102;17.208;2022-08-01T00:47:01;13.90;99.90
40696;DHT22;40425;51.102;17.208;2022-08-01T00:52:05;13.80;99.90
40696;DHT22;40425;51.102;17.208;2022-08-01T00:57:06;13.90;99.90
40696;DHT22;40425;51.102;17.208;2022-08-01T01:02:07;13.90;99.90
40696;DHT22;40425;51.102;17.208;2022-08-01T01:18:11;13.50;99.90
40696;DHT22;40425;51.102;17.208;2022-08-01T01:23:44;13.50;99.90
40696;DHT22;40425;51.102;17.208;2022-08-01T01:29:05;13.40;99.90
40696;DHT22;40425;51.102;17.208;2022-08-01T01:34:08;13.30;99.90
40696;DHT22;40425;51.102;17.208;2022-08-01T01:39:10;13.20;99.90
40696;DHT22;40425;51.102;17.208;2022-08-01T01:44:11;13.20;99.90
40696;DHT22;40425;51.102;17.208;2022-08-01T01:49:12;13.20;99.90
40696;DHT22;40425;51.102;17.208;2022-08-01T01:54:14;13.20;99.90
40696;DHT22;40425;51.102;17.208;2022-08-01T01:59:25;13.20;99.90
40696;DHT22;40425;51.102;17.208;2022-08-01T02:04:28;13.20;99.90
40696;DHT22;40425;51.102;17.208;2022-08-01T02:09:30;13.10;99.90
40696;DHT22;40425;51.102;17.208;2022-08-01T02:14:34;13.20;99.90
40696;DHT22;40425;51.102;17.208;2022-08-01T02:19:36;13.30;99.90
40696;DHT22;40425;51.102;17.208;2022-08-01T02:24:59;13.20;99.90
40696;DHT22;40425;51.102;17.208;2022-08-01T02:30:04;13.30;99.90
40696;DHT22;40425;51.102;17.208;2022-08-01T02:35:20;13.30;99.90
40696;DHT22;40425;51.102;17.208;2022-08-01T02:40:24;13.30;99.90
40696;DHT22;40425;51.102;17.208;2022-08-01T02:45:27;13.30;99.90
40696;DHT22;40425;51.102;17.208;2022-08-01T02:50:30;13.40;99.90
40696;DHT22;40425;51.102;17.208;2022-08-01T02:55:32;13.50;99.90
40696;DHT22;40425;51.102;17.208;2022-08-01T03:00:35;13.50;99.90
40696;DHT22;40425;51.102;17.208;2022-08-01T03:05:38;13.50;99.90
40696;DHT22;40425;51.102;17.208;2022-08-01T03:10:42;13.40;99.90
40696;DHT22;40425;51.102;17.208;2022-08-01T03:15:46;13.40;99.90
40696;DHT22;40425;51.102;17.208;2022-08-01T03:20:49;13.40;99.90
40696;DHT22;40425;51.102;17.208;2022-08-01T03:25:51;13.50;99.90
40696;DHT22;40425;51.102;17.208;2022-08-01T03:30:53;13.60;99.90
40696;DHT22;40425;51.102;17.208;2022-08-01T03:35:55;13.80;99.90
40696;DHT22;40425;51.102;17.208;2022-08-01T03:41:14;13.90;99.90
40696;DHT22;40425;51.102;17.208;2022-08-01T03:46:26;14.00;99.90
40696;DHT22;40425;51.102;17.208;2022-08-01T03:51:28;14.10;99.90
40696;DHT22;40425;51.102;17.208;2022-08-01T03:56:31;14.20;99.90
40696;DHT22;40425;51.102;17.208;2022-08-01T04:01:33;14.40;99.90
40696;DHT22;40425;51.102;17.208;2022-08-01T04:06:38;14.60;99.90
40696;DHT22;40425;51.102;17.208;2022-08-01T04:11:39;14.60;99.90
40696;DHT22;40425;51.102;17.208;2022-08-01T04:16:40;14.80;99.90
40696;DHT22;40425;51.102;17.208;2022-08-01T04:21:41;14.90;99.90
40696;DHT22;40425;51.102;17.208;2022-08-01T04:26:45;15.00;99.90
40696;DHT22;40425;51.102;17.208;2022-08-01T04:31:47;15.10;99.90
40696;DHT22;40425;51.102;17.208;2022-08-01T04:36:52;15.30;99.90
40696;DHT22;40425;51.102;17.208;2022-08-01T04:41:55;15.40;99.90
40696;DHT22;40425;51.102;17.208;2022-08-01T04:47:03;15.50;99.90
40696;DHT22;40425;51.102;17.208;2022-08-01T04:52:05;15.60;99.90
40696;DHT22;40425;51.102;17.208;2022-08-01T04:57:06;15.60;99.90
40696;DHT22;40425;51.102;17.208;2022-08-01T05:02:16;15.70;99.90
40696;DHT22;40425;51.102;17.208;2022-08-01T05:07:17;15.70;99.90
40696;DHT22;40425;51.102;17.208;2022-08-01T05:12:17;15.70;99.90
40696;DHT22;40425;51.102;17.208;2022-08-01T05:17:18;15.70;99.90
40696;DHT22;40425;51.102;17.208;2022-08-01T05:22:19;15.80;99.90
40696;DHT22;40425;51.102;17.208;2022-08-01T05:27:20;15.80;99.90
40696;DHT22;40425;51.102;17.208;2022-08-01T05:32:21;15.90;99.90
40696;DHT22;40425;51.102;17.208;2022-08-01T05:37:22;16.00;99.90
40696;DHT22;40425;51.102;17.208;2022-08-01T05:42:23;16.10;99.90
40696;DHT22;40425;51.102;17.208;2022-08-01T05:47:24;16.20;99.90
40696;DHT22;40425;51.102;17.208;2022-08-01T05:52:25;16.40;99.90
40696;DHT22;40425;51.102;17.208;2022-08-01T05:57:25;16.50;99.90
40696;DHT22;40425;51.102;17.208;2022-08-01T06:02:26;16.70;99.90
40696;DHT22;40425;51.102;17.208;2022-08-01T06:07:28;16.80;99.90
40696;DHT22;40425;51.102;17.208;2022-08-01T06:12:29;17.00;99.90
40696;DHT22;40425;51.102;17.208;2022-08-01T06:17:30;17.10;99.90
40696;DHT22;40425;51.102;17.208;2022-08-01T06:22:30;17.20;99.90
40696;DHT22;40425;51.102;17.208;2022-08-01T06:27:34;17.40;99.90
40696;DHT22;40425;51.102;17.208;2022-08-01T06:32:35;17.50;99.90
40696;DHT22;40425;51.102;17.208;2022-08-01T06:37:36;17.70;99.90
40696;DHT22;40425;51.102;17.208;2022-08-01T06:42:38;17.90;99.90
40696;DHT22;40425;51.102;17.208;2022-08-01T06:47:40;18.30;99.90
40696;DHT22;40425;51.102;17.208;2022-08-01T06:52:41;18.70;99.90
40696;DHT22;40425;51.102;17.208;2022-08-01T06:57:46;19.10;99.90
40696;DHT22;40425;51.102;17.208;2022-08-01T07:02:49;19.30;99.90
40696;DHT22;40425;51.102;17.208;2022-08-01T07:07:50;19.50;99.90
40696;DHT22;40425;51.102;17.208;2022-08-01T07:12:51;19.70;99.90
40696;DHT22;40425;51.102;17.208;2022-08-01T07:17:53;20.00;99.90
40696;DHT22;40425;51.102;17.208;2022-08-01T07:22:53;20.50;99.90
40696;DHT22;40425;51.102;17.208;2022-08-01T07:27:55;21.00;99.90
40696;DHT22;40425;51.102;17.208;2022-08-01T07:32:56;21.50;99.90
40696;DHT22;40425;51.102;17.208;2022-08-01T07:37:59;21.80;99.90
40696;DHT22;40425;51.102;17.208;2022-08-01T07:43:01;21.90;99.90
40696;DHT22;40425;51.102;17.208;2022-08-01T07:48:04;21.90;99.90
40696;DHT22;40425;51.102;17.208;2022-08-01T07:53:08;21.90;99.90
40696;DHT22;40425;51.102;17.208;2022-08-01T07:58:10;22.20;99.90
40696;DHT22;40425;51.102;17.208;2022-08-01T08:03:11;22.60;99.90
40696;DHT22;40425;51.102;17.208;2022-08-01T08:08:12;23.00;99.90
40696;DHT22;40425;51.102;17.208;2022-08-01T08:13:14;23.10;99.90
40696;DHT22;40425;51.102;17.208;2022-08-01T08:18:16;23.40;99.90
40696;DHT22;40425;51.102;17.208;2022-08-01T08:23:17;23.60;99.90
40696;DHT22;40425;51.102;17.208;2022-08-01T08:28:36;23.70;99.90
40696;DHT22;40425;51.102;17.208;2022-08-01T08:33:37;23.50;99.90
40696;DHT22;40425;51.102;17.208;2022-08-01T08:38:38;23.20;99.90
40696;DHT22;40425;51.102;17.208;2022-08-01T08:43:39;23.20;99.90
40696;DHT22;40425;51.102;17.208;2022-08-01T08:48:41;23.10;99.90
40696;DHT22;40425;51.102;17.208;2022-08-01T08:53:42;23.20;99.90
40696;DHT22;40425;51.102;17.208;2022-08-01T08:58:45;23.40;99.90
40696;DHT22;40425;51.102;17.208;2022-08-01T09:03:47;23.70;99.90
40696;DHT22;40425;51.102;17.208;2022-08-01T09:08:48;23.60;99.90
40696;DHT22;40425;51.102;17.208;2022-08-01T09:14:25;23.70;99.90
40696;DHT22;40425;51.102;17.208;2022-08-01T09:19:41;24.10;99.90
40696;DHT22;40425;51.102;17.208;2022-08-01T09:24:43;23.90;99.90
40696;DHT22;40425;51.102;17.208;2022-08-01T09:30:11;24.00;99.90
40696;DHT22;40425;51.102;17.208;2022-08-01T09:40:53;24.60;99.90
40696;DHT22;40425;51.102;17.208;2022-08-01T09:45:55;24.90;99.90
40696;DHT22;40425;51.102;17.208;2022-08-01T09:50:58;24.90;99.90
40696;DHT22;40425;51.102;17.208;2022-08-01T09:56:10;25.10;99.90
40696;DHT22;40425;51.102;17.208;2022-08-01T10:01:11;25.20;99.90
40696;DHT22;40425;51.102;17.208;2022-08-01T10:06:21;25.30;99.90
40696;DHT22;40425;51.102;17.208;2022-08-01T10:11:23;25.20;99.90
40696;DHT22;40425;51.102;17.208;2022-08-01T10:16:25;25.10;99.90
40696;DHT22;40425;51.102;17.208;2022-08-01T10:21:27;25.30;99.90
40696;DHT22;40425;51.102;17.208;2022-08-01T10:26:33;25.10;99.90
40696;DHT22;40425;51.102;17.208;2022-08-01T10:31:34;25.10;99.90
40696;DHT22;40425;51.102;17.208;2022-08-01T10:36:35;25.10;99.90
40696;DHT22;40425;51.102;17.208;2022-08-01T10:41:39;25.20;99.90
40696;DHT22;40425;51.102;17.208;2022-08-01T10:46:47;25.40;99.90
40696;DHT22;40425;51.102;17.208;2022-08-01T10:51:49;25.50;99.90
40696;DHT22;40425;51.102;17.208;2022-08-01T10:56:51;25.70;99.90
40696;DHT22;40425;51.102;17.208;2022-08-01T11:02:00;25.50;99.90
40696;DHT22;40425;51.102;17.208;2022-08-01T11:07:08;25.60;99.90
40696;DHT22;40425;51.102;17.208;2022-08-01T11:12:14;25.70;99.90
40696;DHT22;40425;51.102;17.208;2022-08-01T11:17:34;25.50;99.90
40696;DHT22;40425;51.102;17.208;2022-08-01T11:38:42;26.60;99.90
40696;DHT22;40425;51.102;17.208;2022-08-01T11:44:04;26.70;99.90
40696;DHT22;40425;51.102;17.208;2022-08-01T11:54:47;27.20;99.90
40696;DHT22;40425;51.102;17.208;2022-08-01T11:59:50;27.60;99.90
40696;DHT22;40425;51.102;17.208;2022-08-01T12:04:57;27.90;99.90
40696;DHT22;40425;51.102;17.208;2022-08-01T12:09:59;27.70;99.90
40696;DHT22;40425;51.102;17.208;2022-08-01T12:15:06;27.00;99.90
40696;DHT22;40425;51.102;17.208;2022-08-01T12:20:13;27.60;99.90
40696;DHT22;40425;51.102;17.208;2022-08-01T12:25:16;27.60;99.90
40696;DHT22;40425;51.102;17.208;2022-08-01T12:30:19;27.80;99.90
40696;DHT22;40425;51.102;17.208;2022-08-01T12:35:25;27.80;99.90
40696;DHT22;40425;51.102;17.208;2022-08-01T12:40:29;27.70;99.90
40696;DHT22;40425;51.102;17.208;2022-08-01T12:45:34;27.70;99.90
40696;DHT22;40425;51.102;17.208;2022-08-01T12:50:37;27.30;99.90
40696;DHT22;40425;51.102;17.208;2022-08-01T12:55:46;27.00;99.90
40696;DHT22;40425;51.102;17.208;2022-08-01T13:00:50;26.90;99.90
40696;DHT22;40425;51.102;17.208;2022-08-01T13:06:11;27.00;99.90
40696;DHT22;40425;51.102;17.208;2022-08-01T13:11:14;27.10;99.90
40696;DHT22;40425;51.102;17.208;2022-08-01T13:16:21;27.50;99.90
40696;DHT22;40425;51.102;17.208;2022-08-01T13:21:27;27.60;99.90
40696;DHT22;40425;51.102;17.208;2022-08-01T13:27:01;27.40;99.90
40696;DHT22;40425;51.102;17.208;2022-08-01T13:32:17;26.90;99.90
40696;DHT22;40425;51.102;17.208;2022-08-01T13:37:19;26.70;99.90
40696;DHT22;40425;51.102;17.208;2022-08-01T13:42:20;26.80;99.90
40696;DHT22;40425;51.102;17.208;2022-08-01T13:47:22;26.90;99.90
40696;DHT22;40425;51.102;17.208;2022-08-01T13:52:24;27.40;99.90
40696;DHT22;40425;51.102;17.208;2022-08-01T13:57:25;28.00;99.90
40696;DHT22;40425;51.102;17.208;2022-08-01T14:02:27;27.70;99.90
40696;DHT22;40425;51.102;17.208;2022-08-01T14:07:28;27.50;99.90
40696;DHT22;40425;51.102;17.208;2022-08-01T14:12:32;27.20;99.90
40696;DHT22;40425;51.102;17.208;2022-08-01T14:17:33;27.40;99.90
40696;DHT22;40425;51.102;17.208;2022-08-01T14:22:35;27.10;99.90
40696;DHT22;40425;51.102;17.208;2022-08-01T14:27:35;27.10;99.90
40696;DHT22;40425;51.102;17.208;2022-08-01T14:32:36;27.30;99.90
40696;DHT22;40425;51.102;17.208;2022-08-01T14:37:37;26.50;99.90
40696;DHT22;40425;51.102;17.208;2022-08-01T14:42:39;26.80;99.90
40696;DHT22;40425;51.102;17.208;2022-08-01T14:47:41;26.60;99.90
40696;DHT22;40425;51.102;17.208;2022-08-01T14:52:43;26.80;99.90
40696;DHT22;40425;51.102;17.208;2022-08-01T14:57:44;27.00;99.90
40696;DHT22;40425;51.102;17.208;2022-08-01T15:02:45;27.30;99.90
40696;DHT22;40425;51.102;17.208;2022-08-01T15:07:46;26.80;99.90
40696;DHT22;40425;51.102;17.208;2022-08-01T15:12:48;27.00;99.90
40696;DHT22;40425;51.102;17.208;2022-08-01T15:17:49;26.90;99.90
40696;DHT22;40425;51.102;17.208;2022-08-01T15:22:53;26.80;99.90
40696;DHT22;40425;51.102;17.208;2022-08-01T15:27:54;26.50;99.90
40696;DHT22;40425;51.102;17.208;2022-08-01T15:32:57;26.40;99.90
40696;DHT22;40425;51.102;17.208;2022-08-01T15:37:59;26.50;99.90
40696;DHT22;40425;51.102;17.208;2022-08-01T15:43:00;26.40;99.90
40696;DHT22;40425;51.102;17.208;2022-08-01T15:48:01;26.10;99.90
40696;DHT22;40425;51.102;17.208;2022-08-01T15:53:02;26.00;99.90
40696;DHT22;40425;51.102;17.208;2022-08-01T15:58:03;26.40;99.90
40696;DHT22;40425;51.102;17.208;2022-08-01T16:03:08;26.40;99.90
40696;DHT22;40425;51.102;17.208;2022-08-01T16:08:13;26.10;99.90
40696;DHT22;40425;51.102;17.208;2022-08-01T16:13:15;25.70;99.90
40696;DHT22;40425;51.102;17.208;2022-08-01T16:18:16;25.40;99.90
40696;DHT22;40425;51.102;17.208;2022-08-01T16:23:18;25.00;99.90
40696;DHT22;40425;51.102;17.208;2022-08-01T16:28:19;24.40;99.90
40696;DHT22;40425;51.102;17.208;2022-08-01T16:33:21;24.50;99.90
40696;DHT22;40425;51.102;17.208;2022-08-01T16:38:23;24.40;99.90
40696;DHT22;40425;51.102;17.208;2022-08-01T16:43:24;24.00;99.90
40696;DHT22;40425;51.102;17.208;2022-08-01T16:48:25;23.40;99.90
40696;DHT22;40425;51.102;17.208;2022-08-01T16:53:26;23.10;99.90
40696;DHT22;40425;51.102;17.208;2022-08-01T16:58:27;22.80;99.90
40696;DHT22;40425;51.102;17.208;2022-08-01T17:03:28;22.70;99.90
40696;DHT22;40425;51.102;17.208;2022-08-01T17:08:29;22.50;99.90
40696;DHT22;40425;51.102;17.208;2022-08-01T17:13:29;22.50;99.90
40696;DHT22;40425;51.102;17.208;2022-08-01T17:18:31;22.50;99.90
40696;DHT22;40425;51.102;17.208;2022-08-01T17:23:32;22.50;99.90
40696;DHT22;40425;51.102;17.208;2022-08-01T17:28:33;22.40;99.90
40696;DHT22;40425;51.102;17.208;2022-08-01T17:33:34;22.20;99.90
40696;DHT22;40425;51.102;17.208;2022-08-01T17:38:35;22.10;99.90
40696;DHT22;40425;51.102;17.208;2022-08-01T17:43:36;22.00;99.90
40696;DHT22;40425;51.102;17.208;2022-08-01T17:48:37;22.00;99.90
40696;DHT22;40425;51.102;17.208;2022-08-01T17:53:39;21.70;99.90
40696;DHT22;40425;51.102;17.208;2022-08-01T17:58:40;21.50;99.90
40696;DHT22;40425;51.102;17.208;2022-08-01T18:03:41;21.50;99.90
40696;DHT22;40425;51.102;17.208;2022-08-01T18:08:44;21.40;99.90
40696;DHT22;40425;51.102;17.208;2022-08-01T18:13:49;21.30;99.90
40696;DHT22;40425;51.102;17.208;2022-08-01T18:18:51;21.10;99.90
40696;DHT22;40425;51.102;17.208;2022-08-01T18:23:53;21.10;99.90
40696;DHT22;40425;51.102;17.208;2022-08-01T18:28:55;21.00;99.90
40696;DHT22;40425;51.102;17.208;2022-08-01T18:33:56;21.20;99.90
40696;DHT22;40425;51.102;17.208;2022-08-01T18:38:59;21.00;99.90
40696;DHT22;40425;51.102;17.208;2022-08-01T18:44:03;20.90;99.90
40696;DHT22;40425;51.102;17.208;2022-08-01T18:49:07;20.70;99.90
40696;DHT22;40425;51.102;17.208;2022-08-01T18:54:09;20.60;99.90
40696;DHT22;40425;51.102;17.208;2022-08-01T18:59:12;20.50;99.90
40696;DHT22;40425;51.102;17.208;2022-08-01T19:04:14;20.60;99.90
40696;DHT22;40425;51.102;17.208;2022-08-01T19:09:16;20.60;99.90
40696;DHT22;40425;51.102;17.208;2022-08-01T19:14:18;20.60;99.90
40696;DHT22;40425;51.102;17.208;2022-08-01T19:19:21;20.60;99.90
40696;DHT22;40425;51.102;17.208;2022-08-01T19:24:23;20.40;99.90
40696;DHT22;40425;51.102;17.208;2022-08-01T19:29:30;20.40;99.90
40696;DHT22;40425;51.102;17.208;2022-08-01T19:34:34;20.30;99.90
40696;DHT22;40425;51.102;17.208;2022-08-01T19:39:37;20.20;99.90
40696;DHT22;40425;51.102;17.208;2022-08-01T19:44:39;20.20;99.90
40696;DHT22;40425;51.102;17.208;2022-08-01T19:49:40;20.10;99.90
40696;DHT22;40425;51.102;17.208;2022-08-01T19:54:43;20.10;99.90
40696;DHT22;40425;51.102;17.208;2022-08-01T19:59:49;20.10;99.90
40696;DHT22;40425;51.102;17.208;2022-08-01T20:04:51;20.10;99.90
40696;DHT22;40425;51.102;17.208;2022-08-01T20:09:52;20.20;99.90
40696;DHT22;40425;51.102;17.208;2022-08-01T20:14:55;20.20;99.90
40696;DHT22;40425;51.102;17.208;2022-08-01T20:19:56;20.20;99.90
40696;DHT22;40425;51.102;17.208;2022-08-01T20:24:58;20.20;99.90
40696;DHT22;40425;51.102;17.208;2022-08-01T20:30:00;20.20;99.90
40696;DHT22;40425;51.102;17.208;2022-08-01T20:35:02;20.20;99.90
40696;DHT22;40425;51.102;17.208;2022-08-01T20:40:03;20.30;99.90
40696;DHT22;40425;51.102;17.208;2022-08-01T20:45:05;20.30;99.90
40696;DHT22;40425;51.102;17.208;2022-08-01T20:50:06;20.30;99.90
40696;DHT22;40425;51.102;17.208;2022-08-01T20:55:31;20.30;99.90
40696;DHT22;40425;51.102;17.208;2022-08-01T21:00:33;20.30;99.90
40696;DHT22;40425;51.102;17.208;2022-08-01T21:05:40;20.30;99.90
40696;DHT22;40425;51.102;17.208;2022-08-01T21:10:42;20.30;99.90
40696;DHT22;40425;51.102;17.208;2022-08-01T21:15:52;20.30;99.90
40696;DHT22;40425;51.102;17.208;2022-08-01T21:21:03;20.30;99.90
40696;DHT22;40425;51.102;17.208;2022-08-01T21:26:08;20.30;99.90
40696;DHT22;40425;51.102;17.208;2022-08-01T21:31:10;20.30;99.90
40696;DHT22;40425;51.102;17.208;2022-08-01T21:36:12;20.20;99.90
40696;DHT22;40425;51.102;17.208;2022-08-01T21:41:16;20.20;99.90
40696;DHT22;40425;51.102;17.208;2022-08-01T21:46:19;20.20;99.90
40696;DHT22;40425;51.102;17.208;2022-08-01T21:51:43;20.10;99.90
40696;DHT22;40425;51.102;17.208;2022-08-01T21:57:24;20.00;99.90
40696;DHT22;40425;51.102;17.208;2022-08-01T22:02:33;19.90;99.90
40696;DHT22;40425;51.102;17.208;2022-08-01T22:07:46;19.90;99.90
40696;DHT22;40425;51.102;17.208;2022-08-01T22:12:48;19.90;99.90
40696;DHT22;40425;51.102;17.208;2022-08-01T22:17:50;19.90;99.90
40696;DHT22;40425;51.102;17.208;2022-08-01T22:22:52;19.80;99.90
40696;DHT22;40425;51.102;17.208;2022-08-01T22:27:54;19.80;99.90
40696;DHT22;40425;51.102;17.208;2022-08-01T22:32:57;19.80;99.90
40696;DHT22;40425;51.102;17.208;2022-08-01T22:37:58;19.80;99.90
40696;DHT22;40425;51.102;17.208;2022-08-01T22:43:02;19.80;99.90
40696;DHT22;40425;51.102;17.208;2022-08-01T22:48:17;19.70;99.90
40696;DHT22;40425;51.102;17.208;2022-08-01T22:58:55;19.50;99.90
40696;DHT22;40425;51.102;17.208;2022-08-01T23:03:59;19.40;99.90
40696;DHT22;40425;51.102;17.208;2022-08-01T23:09:02;19.40;99.90
40696;DHT22;40425;51.102;17.208;2022-08-01T23:14:03;19.40;99.90
40696;DHT22;40425;51.102;17.208;2022-08-01T23:19:04;19.40;99.90
40696;DHT22;40425;51.102;17.208;2022-08-01T23:24:06;19.40;99.90
40696;DHT22;40425;51.102;17.208;2022-08-01T23:29:09;19.50;99.90
40696;DHT22;40425;51.102;17.208;2022-08-01T23:34:11;19.50;99.90
40696;DHT22;40425;51.102;17.208;2022-08-01T23:39:12;19.50;99.90
40696;DHT22;40425;51.102;17.208;2022-08-01T23:44:13;19.50;99.90
40696;DHT22;40425;51.102;17.208;2022-08-01T23:49:14;19.50;99.90
40696;DHT22;40425;51.102;17.208;2022-08-01T23:54:14;19.50;99.90
40696;DHT22;40425;51.102;17.208;2022-08-01T23:59:16;19.40;99.90
